Time;durP1;ratioP1;P1;durP2;ratioP2;P2;SDS_P1;SDS_P2;PMS_P1;PMS_P2;Temp;Humidity;BMP_temperature;BMP_pressure;BME280_temperature;BME280_humidity;BME280_pressure;Samples;Min_cycle;Max_cycle;Signal;HPM_P1;HPM_P2
2022/11/20 00:01:25;;;;;;;14.23;10.43;;;;;;;1.65;100.00;96223.88;5042323;28;20056;-66
2022/11/20 00:03:52;;;;;;;19.27;10.05;;;;;;;1.77;100.00;96232.13;5040865;28;20044;-66
2022/11/20 00:06:19;;;;;;;19.10;10.38;;;;;;;1.82;100.00;96228.44;5035836;28;20051;-64
2022/11/20 00:08:46;;;;;;;12.88;7.95;;;;;;;1.82;100.00;96226.53;5041927;28;20037;-66
2022/11/20 00:11:15;;;;;;;14.55;8.05;;;;;;;1.88;100.00;96222.53;5036182;28;20068;-66
2022/11/20 00:13:40;;;;;;;15.55;8.77;;;;;;;2.00;100.00;96226.47;5041454;28;20051;-65
2022/11/20 00:16:07;;;;;;;16.50;9.48;;;;;;;2.07;100.00;96232.19;5035339;28;20037;-67
2022/11/20 00:18:34;;;;;;;17.90;10.07;;;;;;;1.95;100.00;96227.47;5039639;28;20098;-66
2022/11/20 00:21:10;;;;;;;13.13;8.52;;;;;;;2.09;100.00;96230.75;5041283;28;20055;-63
2022/11/20 00:23:35;;;;;;;16.02;8.40;;;;;;;2.23;100.00;96232.44;5040523;28;20037;-66
2022/11/20 00:26:06;;;;;;;11.55;8.10;;;;;;;2.35;100.00;96234.47;5041683;28;20129;-63
2022/11/20 00:28:32;;;;;;;13.20;7.95;;;;;;;2.40;100.00;96229.69;5023173;28;20160;-67
2022/11/20 00:31:16;;;;;;;11.70;8.30;;;;;;;2.46;100.00;96236.47;5041214;28;20546;-66
2022/11/20 00:33:43;;;;;;;11.80;7.05;;;;;;;2.64;100.00;96242.59;5038816;28;20406;-67
2022/11/20 00:36:17;;;;;;;14.00;6.95;;;;;;;2.75;100.00;96236.81;5035382;28;20040;-66
2022/11/20 00:38:44;;;;;;;8.98;6.40;;;;;;;2.80;100.00;96247.44;5061726;28;20081;-67
2022/11/20 00:41:12;;;;;;;10.50;6.00;;;;;;;2.77;100.00;96257.00;5047950;28;20136;-68
2022/11/20 00:43:38;;;;;;;10.80;6.32;;;;;;;2.83;100.00;96247.59;5041125;28;20082;-66
2022/11/20 00:46:05;;;;;;;9.18;6.43;;;;;;;2.89;100.00;96252.81;5036015;28;20127;-69
2022/11/20 00:48:31;;;;;;;11.25;6.93;;;;;;;3.00;100.00;96254.00;5041617;28;20044;-66
2022/11/20 00:50:57;;;;;;;9.02;6.72;;;;;;;3.32;100.00;96252.50;5041119;28;20506;-68
2022/11/20 00:53:23;;;;;;;14.77;8.27;;;;;;;3.50;100.00;96253.16;5018315;28;20513;-68
2022/11/20 00:55:56;;;;;;;12.57;8.02;;;;;;;3.53;100.00;96254.41;5036743;28;20029;-64
2022/11/20 00:58:23;;;;;;;10.73;7.28;;;;;;;3.66;100.00;96249.88;5035451;28;20052;-65
2022/11/20 01:00:49;;;;;;;9.65;6.78;;;;;;;3.66;100.00;96258.78;5040628;28;20095;-66
2022/11/20 01:03:16;;;;;;;8.85;6.15;;;;;;;3.61;100.00;96264.38;5035533;28;20037;-66
2022/11/20 01:05:42;;;;;;;10.57;7.45;;;;;;;3.69;100.00;96263.53;5040077;28;20041;-65
2022/11/20 01:08:07;;;;;;;14.45;6.70;;;;;;;3.83;100.00;96260.50;5035291;28;20037;-66
2022/11/20 01:10:33;;;;;;;13.25;7.57;;;;;;;3.91;100.00;96258.88;5054838;28;20119;-67
2022/11/20 01:15:43;;;;;;;15.30;6.80;;;;;;;3.99;100.00;96261.47;5040431;28;20041;-66
2022/11/20 01:18:08;;;;;;;11.32;6.93;;;;;;;3.82;100.00;96262.44;5036169;28;20098;-66
2022/11/20 01:20:35;;;;;;;10.80;6.38;;;;;;;3.89;100.00;96269.22;5041276;28;20136;-65
2022/11/20 01:23:02;;;;;;;12.30;6.10;;;;;;;3.92;100.00;96266.63;5041324;28;20041;-68
2022/11/20 01:25:27;;;;;;;11.65;6.07;;;;;;;4.02;100.00;96273.56;5001892;28;20052;-66
2022/11/20 01:27:53;;;;;;;9.40;5.97;;;;;;;4.03;100.00;96267.00;5041778;28;20405;-66
2022/11/20 01:30:18;;;;;;;10.02;6.57;;;;;;;4.12;100.00;96267.72;5041767;28;20041;-63
2022/11/20 01:32:44;;;;;;;10.15;6.35;;;;;;;4.17;100.00;96266.72;5041226;28;20044;-65
2022/11/20 01:35:10;;;;;;;12.82;5.97;;;;;;;4.17;100.00;96275.63;5039588;28;20559;-69
2022/11/20 01:37:35;;;;;;;9.73;6.45;;;;;;;4.24;100.00;96269.66;5051523;28;20064;-66
2022/11/20 01:40:01;;;;;;;11.77;6.57;;;;;;;4.14;100.00;96276.31;5041774;28;20437;-64
2022/11/20 01:45:51;;;;;;;9.15;6.45;;;;;;;4.09;100.00;96265.69;5035697;28;20095;-65
2022/11/20 01:48:19;;;;;;;9.43;5.80;;;;;;;4.05;100.00;96272.09;5034029;28;20128;-63
2022/11/20 01:50:45;;;;;;;12.30;6.72;;;;;;;4.10;100.00;96274.59;5049879;28;20049;-66
2022/11/20 01:53:14;;;;;;;9.20;6.07;;;;;;;3.99;100.00;96272.31;5047110;28;20044;-66
2022/11/20 01:55:49;;;;;;;10.38;6.15;;;;;;;4.08;100.00;96276.88;5047730;28;20048;-66
2022/11/20 01:58:16;;;;;;;11.40;6.78;;;;;;;4.18;100.00;96271.81;5042150;28;20045;-66
2022/11/20 02:00:42;;;;;;;13.77;6.53;;;;;;;4.12;100.00;96273.13;5040480;28;20048;-66
2022/11/20 02:03:15;;;;;;;9.63;6.50;;;;;;;4.06;100.00;96273.69;5036470;28;20094;-65
2022/11/20 02:05:51;;;;;;;10.20;5.78;;;;;;;4.09;100.00;96279.25;5040658;28;20066;-66
2022/11/20 02:08:17;;;;;;;10.32;6.45;;;;;;;4.05;100.00;96278.31;5035070;28;20045;-67
2022/11/20 02:10:43;;;;;;;8.80;6.30;;;;;;;4.06;100.00;96276.41;5038200;28;20667;-68
2022/11/20 02:15:53;;;;;;;9.43;6.50;;;;;;;4.05;100.00;96277.53;5040427;28;20414;-68
2022/11/20 02:18:20;;;;;;;9.82;6.43;;;;;;;4.19;100.00;96280.72;5035824;28;20041;-67
2022/11/20 02:20:49;;;;;;;7.97;5.75;;;;;;;4.30;100.00;96279.16;5023442;28;20121;-68
2022/11/20 02:23:27;;;;;;;8.93;6.03;;;;;;;4.34;100.00;96282.81;5035408;28;20069;-65
2022/11/20 02:25:54;;;;;;;11.10;6.50;;;;;;;4.19;100.00;96281.50;5022087;28;20463;-66
2022/11/20 02:28:20;;;;;;;9.27;6.10;;;;;;;4.28;100.00;96275.22;5033049;28;20072;-68
2022/11/20 02:30:45;;;;;;;9.55;5.75;;;;;;;4.22;100.00;96280.84;5044727;28;20102;-68
2022/11/20 02:33:12;;;;;;;8.15;5.75;;;;;;;4.27;100.00;96279.03;5039173;28;20041;-66
2022/11/20 02:35:41;;;;;;;10.85;6.03;;;;;;;4.39;100.00;96277.16;5019547;28;20037;-69
2022/11/20 02:38:07;;;;;;;8.18;5.82;;;;;;;4.38;100.00;96278.28;5037501;28;20044;-68
2022/11/20 02:40:32;;;;;;;8.15;5.78;;;;;;;4.44;100.00;96272.66;5046623;28;20469;-67
2022/11/20 02:42:58;;;;;;;10.95;5.80;;;;;;;4.39;100.00;96269.03;5045886;28;20116;-68
2022/11/20 02:45:24;;;;;;;8.68;5.80;;;;;;;4.42;100.00;96280.34;5040482;28;20033;-66
2022/11/20 02:47:51;;;;;;;8.07;5.82;;;;;;;4.43;100.00;96285.41;5049406;28;20041;-68
2022/11/20 02:50:16;;;;;;;7.90;5.47;;;;;;;4.41;100.00;96279.53;5043274;28;20041;-67
2022/11/20 02:52:42;;;;;;;7.88;5.45;;;;;;;4.43;100.00;96277.28;5041973;28;20130;-67
2022/11/20 02:55:08;;;;;;;7.65;5.40;;;;;;;4.48;100.00;96277.03;5036983;28;20049;-66
2022/11/20 02:57:33;;;;;;;9.98;5.47;;;;;;;4.48;100.00;96274.31;5039848;28;20543;-67
2022/11/20 02:59:59;;;;;;;7.60;5.18;;;;;;;4.44;100.00;96278.84;5039934;28;20049;-68
2022/11/20 03:02:24;;;;;;;7.15;5.43;;;;;;;4.43;100.00;96274.56;5018599;28;20107;-68
2022/11/20 03:04:49;;;;;;;8.52;5.00;;;;;;;4.43;100.00;96280.00;5042777;28;20123;-67
2022/11/20 03:07:15;;;;;;;11.27;5.43;;;;;;;4.26;100.00;96277.47;5016169;28;20040;-67
2022/11/20 03:09:40;;;;;;;9.82;5.65;;;;;;;4.25;100.00;96275.88;5040911;28;20106;-65
2022/11/20 03:12:06;;;;;;;13.30;5.22;;;;;;;4.14;100.00;96273.63;5035758;28;20106;-67
2022/11/20 03:14:32;;;;;;;13.25;5.00;;;;;;;4.18;100.00;96277.22;5040803;28;20060;-67
2022/11/20 03:16:57;;;;;;;10.68;5.15;;;;;;;4.11;100.00;96277.00;5040717;28;20554;-68
2022/11/20 03:19:23;;;;;;;8.48;5.20;;;;;;;4.13;100.00;96273.94;5035764;28;20412;-68
2022/11/20 03:21:49;;;;;;;12.45;5.07;;;;;;;4.11;100.00;96277.00;5041402;28;20037;-68
2022/11/20 03:24:15;;;;;;;8.30;4.43;;;;;;;4.24;100.00;96277.81;5035711;28;20128;-66
2022/11/20 03:26:41;;;;;;;6.57;4.68;;;;;;;4.35;100.00;96278.16;5040105;28;20048;-66
2022/11/20 03:29:07;;;;;;;6.88;5.00;;;;;;;4.34;100.00;96273.84;5035308;28;20064;-66
2022/11/20 03:31:40;;;;;;;5.80;4.72;;;;;;;4.32;100.00;96270.69;5037624;28;20120;-64
2022/11/20 03:34:07;;;;;;;8.77;4.82;;;;;;;4.48;100.00;96271.63;5042510;28;20045;-67
2022/11/20 03:36:32;;;;;;;8.07;4.80;;;;;;;4.51;100.00;96273.66;5044610;28;20041;-68
2022/11/20 03:38:58;;;;;;;7.07;5.03;;;;;;;4.43;100.00;96280.00;5040619;28;20465;-64
2022/11/20 03:41:29;;;;;;;10.63;5.18;;;;;;;4.38;100.00;96277.50;5035240;28;20044;-67
2022/11/20 03:44:00;;;;;;;7.88;5.28;;;;;;;4.33;100.00;96280.44;5040554;28;20228;-67
2022/11/20 03:46:27;;;;;;;8.85;4.97;;;;;;;4.24;100.00;96280.50;5034304;28;20037;-65
2022/11/20 03:48:52;;;;;;;9.50;5.25;;;;;;;4.12;100.00;96273.13;5037961;28;20048;-71
2022/11/20 03:51:23;;;;;;;7.68;5.07;;;;;;;4.11;100.00;96273.50;5034600;28;20033;-67
2022/11/20 03:53:51;;;;;;;8.15;5.40;;;;;;;4.08;100.00;96274.94;5038111;28;20044;-67
2022/11/20 03:56:19;;;;;;;9.10;5.10;;;;;;;4.09;100.00;96262.97;5033224;28;20086;-67
2022/11/20 03:58:45;;;;;;;7.03;5.05;;;;;;;4.07;100.00;96269.84;5039834;28;20051;-66
2022/11/20 04:01:20;;;;;;;11.20;5.15;;;;;;;4.11;100.00;96271.56;5033549;28;20041;-66
2022/11/20 04:03:46;;;;;;;10.32;4.68;;;;;;;4.09;100.00;96275.72;5038400;28;20040;-68
2022/11/20 04:06:20;;;;;;;11.25;4.90;;;;;;;4.17;100.00;96274.84;5015514;28;20029;-68
2022/11/20 04:08:46;;;;;;;8.75;4.97;;;;;;;4.29;100.00;96276.81;5039849;28;20037;-68
2022/11/20 04:11:13;;;;;;;8.50;5.05;;;;;;;4.39;100.00;96277.16;5034051;28;20045;-67
2022/11/20 04:13:41;;;;;;;7.18;4.43;;;;;;;4.55;100.00;96269.13;5039266;28;20033;-70
2022/11/20 04:16:08;;;;;;;6.90;4.65;;;;;;;4.73;100.00;96268.94;5034816;28;20048;-67
2022/11/20 04:18:34;;;;;;;7.60;4.65;;;;;;;4.68;100.00;96271.88;5022216;28;20061;-67
2022/11/20 04:21:00;;;;;;;7.18;4.32;;;;;;;4.74;100.00;96265.09;5040259;28;20121;-65
2022/11/20 04:23:26;;;;;;;7.05;4.20;;;;;;;4.72;100.00;96265.44;5041765;28;20041;-68
2022/11/20 04:25:52;;;;;;;7.20;4.20;;;;;;;4.59;100.00;96263.84;5048791;28;20052;-67
2022/11/20 04:28:17;;;;;;;6.10;4.10;;;;;;;4.57;100.00;96266.09;5042961;28;20037;-67
2022/11/20 04:30:43;;;;;;;6.80;4.70;;;;;;;4.41;100.00;96268.66;5027589;28;20040;-65
2022/11/20 04:33:08;;;;;;;10.90;4.47;;;;;;;4.28;100.00;96267.09;5035428;28;20402;-66
2022/11/20 04:35:34;;;;;;;8.95;5.10;;;;;;;4.16;100.00;96270.53;5042255;28;20079;-66
2022/11/20 04:38:00;;;;;;;10.40;4.95;;;;;;;4.09;100.00;96260.28;5040094;28;20041;-67
2022/11/20 04:40:26;;;;;;;11.02;4.93;;;;;;;4.02;100.00;96258.09;5045314;28;20059;-68
2022/11/20 04:42:51;;;;;;;9.00;4.60;;;;;;;4.04;100.00;96265.91;5045086;28;20060;-66
2022/11/20 04:45:17;;;;;;;10.10;4.75;;;;;;;4.19;100.00;96267.16;5035167;28;20048;-68
2022/11/20 04:47:42;;;;;;;8.93;4.90;;;;;;;4.17;100.00;96261.28;5041287;28;20516;-65
2022/11/20 04:50:08;;;;;;;9.60;5.13;;;;;;;4.40;100.00;96265.19;5034700;28;20043;-72
2022/11/20 04:52:34;;;;;;;8.18;4.70;;;;;;;4.37;100.00;96273.19;5039716;28;20440;-66
2022/11/20 04:54:59;;;;;;;9.00;4.03;;;;;;;4.37;100.00;96276.69;5041532;28;20132;-66
2022/11/20 04:57:25;;;;;;;9.05;4.88;;;;;;;4.37;100.00;96276.69;5033656;28;20048;-67
2022/11/20 04:59:50;;;;;;;9.05;4.85;;;;;;;4.36;100.00;96275.13;5039273;28;20406;-67
2022/11/20 05:02:16;;;;;;;9.38;4.80;;;;;;;4.32;100.00;96281.53;5035839;28;20528;-66
2022/11/20 05:04:41;;;;;;;9.82;5.30;;;;;;;4.36;100.00;96279.75;5042355;28;20044;-69
2022/11/20 05:07:08;;;;;;;7.55;5.05;;;;;;;4.32;100.00;96282.34;5048026;28;20433;-68
2022/11/20 05:09:34;;;;;;;6.43;5.07;;;;;;;4.28;100.00;96284.13;5052859;28;20182;-64
2022/11/20 05:11:59;;;;;;;7.45;4.70;;;;;;;4.27;100.00;96281.75;5023541;28;20128;-68
2022/11/20 05:14:25;;;;;;;6.13;4.50;;;;;;;4.42;100.00;96289.25;5036387;28;20132;-67
2022/11/20 05:16:50;;;;;;;5.75;4.18;;;;;;;4.26;100.00;96283.69;5022210;28;20040;-66
2022/11/20 05:19:16;;;;;;;6.30;3.85;;;;;;;4.14;100.00;96280.94;5035720;28;20041;-67
2022/11/20 05:21:41;;;;;;;6.68;4.20;;;;;;;4.12;100.00;96286.69;5041061;28;20048;-65
2022/11/20 05:24:07;;;;;;;7.47;3.70;;;;;;;4.13;100.00;96285.56;5035728;28;20051;-66
2022/11/20 05:26:32;;;;;;;8.38;3.70;;;;;;;4.13;100.00;96285.56;5040306;28;20114;-67
2022/11/20 05:28:58;;;;;;;6.55;3.30;;;;;;;4.12;100.00;96299.44;5041181;28;20053;-68
2022/11/20 05:31:24;;;;;;;5.70;2.90;;;;;;;4.06;100.00;96290.75;5033299;28;20527;-68
2022/11/20 05:33:50;;;;;;;6.68;3.13;;;;;;;4.16;100.00;96300.34;5040359;28;20049;-67
2022/11/20 05:36:16;;;;;;;4.15;2.90;;;;;;;4.19;100.00;96303.19;5034647;28;20045;-67
2022/11/20 05:38:43;;;;;;;5.05;3.10;;;;;;;4.30;100.00;96297.34;5040906;28;20065;-68
2022/11/20 05:41:14;;;;;;;6.40;3.38;;;;;;;4.24;100.00;96296.78;5044429;28;20076;-69
2022/11/20 05:43:42;;;;;;;4.95;3.00;;;;;;;4.25;100.00;96302.97;5042706;28;20044;-66
2022/11/20 05:46:09;;;;;;;5.28;2.95;;;;;;;4.27;100.00;96292.59;5033454;28;20041;-67
2022/11/20 05:48:35;;;;;;;4.72;3.05;;;;;;;4.26;100.00;96296.44;5021055;28;20037;-67
2022/11/20 05:51:03;;;;;;;6.70;3.22;;;;;;;4.22;100.00;96296.31;5039482;28;20037;-67
2022/11/20 05:53:29;;;;;;;6.38;2.83;;;;;;;4.19;100.00;96300.47;5038661;28;20056;-65
2022/11/20 05:56:21;;;;;;;4.25;2.75;;;;;;;4.16;100.00;96303.06;5050025;28;20045;-68
2022/11/20 05:58:47;;;;;;;5.00;2.80;;;;;;;4.20;100.00;96302.06;5038013;28;20055;-68
2022/11/20 06:01:23;;;;;;;6.43;3.17;;;;;;;4.08;100.00;96302.03;5033341;28;20049;-68
2022/11/20 06:03:50;;;;;;;5.03;2.72;;;;;;;4.18;100.00;96300.84;5040185;28;20478;-66
2022/11/20 06:06:17;;;;;;;3.22;2.70;;;;;;;4.21;100.00;96300.97;5033770;28;20064;-67
2022/11/20 06:08:43;;;;;;;6.32;3.58;;;;;;;4.18;100.00;96303.56;5038124;28;20128;-67
2022/11/20 06:11:11;;;;;;;5.95;3.17;;;;;;;4.24;100.00;96307.63;5031227;28;20063;-67
2022/11/20 06:13:37;;;;;;;8.30;3.65;;;;;;;4.27;100.00;96301.53;5039826;28;20504;-66
2022/11/20 06:16:03;;;;;;;7.53;3.75;;;;;;;4.24;100.00;96301.41;5039433;28;20083;-70
2022/11/20 06:18:29;;;;;;;6.63;3.47;;;;;;;4.20;100.00;96304.00;5029362;28;20041;-68
2022/11/20 06:21:09;;;;;;;5.82;3.55;;;;;;;4.22;100.00;96313.38;5047021;28;20041;-68
2022/11/20 06:23:36;;;;;;;7.53;3.78;;;;;;;4.26;100.00;96307.28;5037435;28;20118;-65
2022/11/20 06:26:13;;;;;;;5.88;3.33;;;;;;;4.33;100.00;96311.03;5036790;28;20187;-70
2022/11/20 06:28:39;;;;;;;11.15;3.65;;;;;;;4.35;100.00;96310.69;5020467;28;20100;-65
2022/11/20 06:31:05;;;;;;;9.15;3.72;;;;;;;4.43;100.00;96312.53;5015354;28;20080;-69
2022/11/20 06:33:31;;;;;;;8.13;3.28;;;;;;;4.43;100.00;96300.88;4993855;28;20045;-67
2022/11/20 06:35:58;;;;;;;6.63;3.42;;;;;;;4.38;100.00;96299.97;5047421;28;20777;-66
2022/11/20 06:38:24;;;;;;;7.53;3.67;;;;;;;4.50;100.00;96301.13;5033730;28;20678;-67
2022/11/20 06:40:50;;;;;;;4.15;3.10;;;;;;;4.56;100.00;96310.63;5036294;28;20466;-64
2022/11/20 06:43:15;;;;;;;6.00;3.20;;;;;;;4.60;100.00;96308.81;5033631;28;20048;-67
2022/11/20 06:45:41;;;;;;;7.30;3.85;;;;;;;4.57;100.00;96313.03;5039778;28;20045;-67
2022/11/20 06:48:06;;;;;;;5.00;3.47;;;;;;;4.67;100.00;96321.84;5020500;28;20048;-66
2022/11/20 06:50:32;;;;;;;5.75;3.15;;;;;;;4.63;100.00;96321.72;5040543;28;20052;-65
2022/11/20 06:53:02;;;;;;;7.43;3.92;;;;;;;4.56;100.00;96324.19;5042999;28;20044;-68
2022/11/20 06:55:27;;;;;;;;;;;;;;;4.59;100.00;96326.22;5043071;28;20140;-68
2022/11/20 06:57:53;;;;;;;6.75;3.58;;;;;;;4.59;100.00;96334.34;5046304;28;19944;-68
2022/11/20 07:00:18;;;;;;;9.65;3.88;;;;;;;4.51;100.00;96327.13;5021424;28;20039;-67
2022/11/20 07:02:44;;;;;;;8.60;3.97;;;;;;;4.51;100.00;96332.53;5043146;28;20073;-67
2022/11/20 07:05:09;;;;;;;8.82;3.50;;;;;;;4.62;100.00;96338.34;5037349;28;20096;-68
2022/11/20 07:07:35;;;;;;;5.22;3.67;;;;;;;4.54;100.00;96337.31;5042111;28;20052;-67
2022/11/20 07:10:00;;;;;;;7.40;3.38;;;;;;;4.58;100.00;96335.50;5036952;28;20164;-66
2022/11/20 07:12:26;;;;;;;5.18;3.35;;;;;;;4.82;100.00;96336.66;5035052;28;20457;-67
2022/11/20 07:14:51;;;;;;;5.05;3.05;;;;;;;4.79;100.00;96338.91;5040035;28;20064;-68
2022/11/20 07:17:17;;;;;;;5.15;2.95;;;;;;;4.69;100.00;96344.00;5012173;28;20045;-67
2022/11/20 07:19:42;;;;;;;5.03;2.97;;;;;;;4.70;100.00;96343.66;5033245;28;20120;-66
2022/11/20 07:22:08;;;;;;;4.55;2.92;;;;;;;4.73;100.00;96347.59;5035180;28;20076;-70
2022/11/20 07:24:34;;;;;;;5.60;3.20;;;;;;;4.74;100.00;96349.22;5023557;28;20048;-65
2022/11/20 07:27:00;;;;;;;6.53;3.38;;;;;;;4.79;100.00;96352.50;5042855;28;20041;-65
2022/11/20 07:29:25;;;;;;;5.63;3.08;;;;;;;4.79;100.00;96349.78;5050828;28;20072;-67
2022/11/20 07:31:51;;;;;;;6.75;3.58;;;;;;;4.79;100.00;96351.72;5044843;28;20056;-68
2022/11/20 07:34:16;;;;;;;7.03;3.30;;;;;;;4.84;100.00;96350.69;5037596;28;20045;-66
2022/11/20 07:36:41;;;;;;;10.55;3.20;;;;;;;4.76;100.00;96358.56;5042339;28;20122;-67
2022/11/20 07:39:07;;;;;;;6.50;3.13;;;;;;;4.89;100.00;96359.38;5042762;28;20048;-69
2022/11/20 07:41:32;;;;;;;4.75;3.08;;;;;;;4.92;100.00;96356.00;5038563;28;20036;-68
2022/11/20 07:43:58;;;;;;;6.15;3.10;;;;;;;4.94;100.00;96353.75;5038539;28;20041;-69
2022/11/20 07:46:23;;;;;;;6.57;2.95;;;;;;;4.97;100.00;96355.78;5045345;28;20049;-67
2022/11/20 07:48:49;;;;;;;4.32;2.72;;;;;;;5.00;100.00;96354.31;5038290;28;20053;-67
2022/11/20 07:51:14;;;;;;;4.82;2.75;;;;;;;4.97;100.00;96355.78;5021037;28;20033;-67
2022/11/20 07:53:39;;;;;;;7.15;3.30;;;;;;;4.94;100.00;96356.44;5026007;28;20033;-67
2022/11/20 07:56:05;;;;;;;4.65;3.15;;;;;;;5.07;100.00;96357.25;5037742;28;20390;-70
2022/11/20 07:58:32;;;;;;;6.32;3.33;;;;;;;5.17;100.00;96359.53;5042990;28;20045;-65
2022/11/20 08:01:03;;;;;;;6.35;3.58;;;;;;;5.19;100.00;96369.25;5042548;28;20040;-68
2022/11/20 08:03:28;;;;;;;5.40;3.70;;;;;;;5.25;100.00;96365.19;5021604;28;20083;-67
2022/11/20 08:05:53;;;;;;;5.35;3.30;;;;;;;5.34;100.00;96358.47;5039079;28;20087;-69
2022/11/20 08:08:19;;;;;;;71.13;33.28;;;;;;;5.26;100.00;96372.19;5037732;28;20052;-66
2022/11/20 08:10:44;;;;;;;10.55;4.13;;;;;;;5.25;100.00;96365.19;5040846;28;20064;-67
2022/11/20 08:15:53;;;;;;;7.68;2.90;;;;;;;5.25;100.00;96365.97;5049750;28;20065;-64
2022/11/20 08:18:19;;;;;;;4.72;2.83;;;;;;;5.39;100.00;96370.28;5036813;28;20069;-67
2022/11/20 08:20:45;;;;;;;6.90;2.90;;;;;;;5.30;100.00;96360.31;5042598;28;20118;-67
2022/11/20 08:23:11;;;;;;;4.00;2.72;;;;;;;5.32;100.00;96359.97;5036541;28;20041;-67
2022/11/20 08:25:37;;;;;;;4.28;2.50;;;;;;;5.41;100.00;96368.78;5041799;28;20052;-69
2022/11/20 08:28:09;;;;;;;8.32;3.08;;;;;;;5.34;100.00;96366.63;5021462;28;20056;-69
2022/11/20 08:30:35;;;;;;;4.18;2.40;;;;;;;5.43;100.00;96371.16;5042100;28;20041;-65
2022/11/20 08:33:03;;;;;;;6.75;2.80;;;;;;;5.43;100.00;96369.22;5041443;28;20048;-65
2022/11/20 08:35:33;;;;;;;4.30;2.38;;;;;;;5.47;100.00;96372.06;5030387;28;20052;-68
2022/11/20 08:37:58;;;;;;;;;;;;;;;5.59;100.00;96376.69;5042876;28;20048;-69
2022/11/20 08:40:24;;;;;;;3.92;2.33;;;;;;;5.58;100.00;96367.72;5054177;28;20346;-68
2022/11/20 08:42:50;;;;;;;7.18;2.25;;;;;;;5.71;100.00;96376.69;5050132;28;20051;-66
2022/11/20 08:45:17;;;;;;;4.38;2.60;;;;;;;5.90;100.00;96376.06;5050256;28;20133;-67
2022/11/20 08:47:43;;;;;;;3.75;2.08;;;;;;;5.90;100.00;96379.56;5046330;28;20045;-65
2022/11/20 08:50:10;;;;;;;11.13;4.93;;;;;;;5.92;100.00;96379.22;5037196;28;20047;-65
2022/11/20 08:52:35;;;;;;;4.15;2.65;;;;;;;5.84;100.00;96372.78;5041624;28;20067;-66
2022/11/20 08:55:01;;;;;;;8.02;2.65;;;;;;;6.04;100.00;96375.72;5040626;28;20105;-67
2022/11/20 08:57:26;;;;;;;4.95;1.92;;;;;;;6.12;100.00;96367.41;5032908;28;20044;-67
2022/11/20 08:59:51;;;;;;;3.33;2.20;;;;;;;6.30;100.00;96377.97;5041769;28;20435;-66
2022/11/20 09:02:17;;;;;;;5.63;2.40;;;;;;;6.28;100.00;96370.19;5036305;28;20033;-68
2022/11/20 09:04:42;;;;;;;3.47;2.20;;;;;;;6.17;100.00;96373.75;5047298;28;20037;-69
2022/11/20 09:07:07;;;;;;;6.00;2.20;;;;;;;6.66;100.00;96368.06;5042477;28;20036;-67
2022/11/20 09:09:33;;;;;;;3.08;2.03;;;;;;;6.65;100.00;96370.00;5023589;28;20029;-68
2022/11/20 09:11:58;;;;;;;6.32;1.95;;;;;;;6.82;100.00;96370.81;5039924;28;20551;-67
2022/11/20 09:14:28;;;;;;;2.88;1.60;;;;;;;6.70;99.23;96367.03;5016970;28;20643;-67
2022/11/20 09:16:57;;;;;;;4.55;2.40;;;;;;;6.81;99.54;96361.06;5023299;28;20521;-66
2022/11/20 09:19:24;;;;;;;4.05;2.45;;;;;;;6.81;100.00;96361.06;5017712;28;20049;-66
2022/11/20 09:21:49;;;;;;;3.88;2.35;;;;;;;7.00;99.40;96365.81;5021734;28;20041;-67
2022/11/20 09:24:14;;;;;;;5.32;2.17;;;;;;;6.96;98.88;96368.44;5035337;28;20117;-66
2022/11/20 09:26:40;;;;;;;3.75;2.28;;;;;;;7.40;96.98;96364.81;5039535;28;20543;-67
2022/11/20 09:29:05;;;;;;;6.03;2.40;;;;;;;7.38;95.73;96357.00;5017901;28;20490;-66
2022/11/20 09:31:31;;;;;;;3.28;1.98;;;;;;;7.32;96.41;96365.81;5041135;28;20068;-67
2022/11/20 09:34:00;;;;;;;4.93;2.50;;;;;;;7.28;96.07;96363.78;5039584;28;20083;-67
2022/11/20 09:36:28;;;;;;;3.90;1.85;;;;;;;7.37;94.35;96365.53;5035692;28;20136;-66
2022/11/20 09:38:54;;;;;;;28.13;13.63;;;;;;;7.37;95.56;96363.59;5041156;28;20463;-68
2022/11/20 09:41:44;;;;;;;4.72;2.45;;;;;;;7.13;95.36;96356.44;5040154;28;20550;-70
2022/11/20 09:44:16;;;;;;;3.83;2.22;;;;;;;7.20;95.42;96366.69;5041820;28;20033;-68
2022/11/20 09:47:02;;;;;;;9.82;5.18;;;;;;;7.45;95.41;96372.72;5042078;28;20048;-67
2022/11/20 09:49:40;;;;;;;6.05;2.47;;;;;;;7.49;94.46;96367.34;5021676;28;20048;-67
2022/11/20 09:52:34;;;;;;;4.68;2.30;;;;;;;7.41;94.75;96364.47;5035830;28;20068;-67
2022/11/20 09:55:03;;;;;;;4.93;1.85;;;;;;;7.29;95.12;96353.66;5048749;28;20504;-67
2022/11/20 09:57:36;;;;;;;5.15;2.20;;;;;;;7.50;95.04;96356.09;5030742;28;20204;-67
2022/11/20 10:00:05;;;;;;;7.85;3.55;;;;;;;7.45;94.25;96356.38;5045773;28;20095;-68
2022/11/20 10:02:39;;;;;;;5.38;2.47;;;;;;;7.49;93.42;96361.91;5040086;28;20053;-68
2022/11/20 10:05:27;;;;;;;2.50;1.73;;;;;;;7.41;91.93;96361.75;5034071;28;20095;-64
2022/11/20 10:07:56;;;;;;;3.70;2.20;;;;;;;7.46;91.35;96357.97;5040041;28;20439;-68
2022/11/20 10:10:39;;;;;;;4.20;1.88;;;;;;;7.45;91.22;96356.38;5036160;28;20060;-67
2022/11/20 10:13:22;;;;;;;2.65;1.70;;;;;;;7.49;89.14;96362.72;5018079;28;20045;-67
2022/11/20 10:15:53;;;;;;;3.45;2.15;;;;;;;7.70;89.85;96358.88;5021917;28;20136;-67
2022/11/20 10:18:19;;;;;;;4.28;1.60;;;;;;;7.66;89.09;96356.84;5034529;28;20079;-68
2022/11/20 10:21:16;;;;;;;3.55;1.60;;;;;;;7.77;87.68;96356.31;5040422;28;20057;-68
2022/11/20 10:23:56;;;;;;;2.63;1.83;;;;;;;8.21;86.36;96350.56;5040324;28;20044;-68
2022/11/20 10:26:34;;;;;;;2.95;1.70;;;;;;;8.38;83.45;96341.94;5034911;28;20473;-68
2022/11/20 10:29:29;;;;;;;5.63;1.90;;;;;;;8.28;83.25;96342.53;5022523;28;20048;-67
2022/11/20 10:32:02;;;;;;;3.00;1.60;;;;;;;8.31;84.43;96344.53;5039690;28;20128;-68
2022/11/20 10:34:49;;;;;;;3.13;1.73;;;;;;;8.43;81.57;96351.84;5031764;28;20075;-68
2022/11/20 10:37:17;;;;;;;3.17;1.55;;;;;;;8.49;83.07;96350.38;5020487;28;20044;-67
2022/11/20 10:40:17;;;;;;;2.53;1.67;;;;;;;8.26;81.58;96355.75;5028504;28;20047;-68
2022/11/20 10:42:46;;;;;;;2.90;1.60;;;;;;;8.03;83.82;96352.94;5033746;28;20175;-67
2022/11/20 10:45:23;;;;;;;5.72;1.90;;;;;;;8.17;83.18;96353.22;5016959;28;20045;-66
2022/11/20 10:47:49;;;;;;;2.20;1.42;;;;;;;8.20;83.04;96349.78;5019772;28;20042;-68
2022/11/20 10:50:19;;;;;;;2.17;1.30;;;;;;;8.49;80.36;96353.09;5031615;28;20037;-68
2022/11/20 10:53:06;;;;;;;5.53;1.80;;;;;;;8.58;81.52;96342.75;5039770;28;20033;-68
2022/11/20 10:55:53;;;;;;;3.30;1.23;;;;;;;9.16;78.81;96344.53;5036940;28;20041;-68
2022/11/20 10:58:49;;;;;;;2.33;1.20;;;;;;;9.91;71.89;96338.56;5036762;28;20047;-69
2022/11/20 11:01:16;;;;;;;2.15;1.35;;;;;;;9.87;71.80;96341.25;5010586;28;20073;-68
2022/11/20 11:03:45;;;;;;;3.38;1.95;;;;;;;9.55;72.77;96340.81;5025049;28;20455;-68
2022/11/20 11:06:21;;;;;;;2.88;1.20;;;;;;;8.79;74.97;96325.97;5020019;28;20044;-68
2022/11/20 11:08:50;;;;;;;1.65;1.30;;;;;;;8.54;75.34;96347.34;5043606;28;20037;-68
2022/11/20 11:11:28;;;;;;;3.60;1.50;;;;;;;8.50;77.60;96332.06;5038283;28;20398;-68
2022/11/20 11:14:08;;;;;;;2.85;1.27;;;;;;;7.96;79.60;96326.34;5043667;28;20044;-68
2022/11/20 11:16:34;;;;;;;4.03;1.30;;;;;;;7.70;80.12;96331.63;5046663;28;20573;-67
2022/11/20 11:19:11;;;;;;;2.33;1.35;;;;;;;7.75;81.08;96318.50;5034728;28;20136;-69
2022/11/20 11:21:41;;;;;;;3.28;1.60;;;;;;;7.82;82.07;96315.91;5025503;28;20037;-68
2022/11/20 11:24:22;;;;;;;2.22;1.25;;;;;;;7.67;83.48;96316.78;5028129;28;20529;-68
2022/11/20 11:27:12;;;;;;;2.80;1.05;;;;;;;7.67;82.72;96322.22;5039169;28;20490;-68
2022/11/20 11:29:37;;;;;;;3.83;2.17;;;;;;;7.53;84.05;96316.47;5007932;28;20033;-68
2022/11/20 11:32:08;;;;;;;2.22;1.60;;;;;;;7.42;84.77;96319.72;5040494;28;20036;-68
2022/11/20 11:34:34;;;;;;;2.92;1.65;;;;;;;7.34;86.05;96317.19;5043732;28;20045;-68
2022/11/20 11:37:03;;;;;;;2.95;1.80;;;;;;;7.45;87.05;96321.75;5042549;28;20048;-68
2022/11/20 11:39:30;;;;;;;3.20;2.00;;;;;;;7.50;87.92;96314.44;5040219;28;20051;-67
2022/11/20 11:41:57;;;;;;;1.58;1.20;;;;;;;7.34;88.51;96306.31;5044489;28;20053;-69
2022/11/20 11:47:23;;;;;;;1.90;1.50;;;;;;;7.21;88.77;96292.78;5045673;28;20071;-68
2022/11/20 11:49:48;;;;;;;2.60;1.50;;;;;;;7.23;88.87;96306.84;5042134;28;20048;-68
2022/11/20 11:52:20;;;;;;;5.28;2.00;;;;;;;7.34;88.08;96290.75;5033595;28;20043;-68
2022/11/20 11:54:53;;;;;;;3.35;1.60;;;;;;;7.35;88.94;96286.88;5042513;28;20110;-67